WetterOnline ( https://www.wetteronline.de )

Wetter aktuell Stollberg

Aktuelles Wetter: Chemnitz (420m)

6-stündlich | Neueste Meldungen
Ortszeit Temperatur Wetter
Sa, 27.02. 7:00 0.4° C bedeckt
Sa, 27.02. 1:00 1.5° C bedeckt
Fr, 26.02. 19:00 0.8° C Regen
Fr, 26.02. 13:00 5.1° C Sprühregen
Fr, 26.02. 7:00 6.6° C bewölkt
Fr, 26.02. 1:00 9.8° C wolkenlos
Do, 25.02. 19:00 12.3° C wolkenlos
Do, 25.02. 13:00 18.6° C wolkenlos
Ortszeit Temperatur Wetter
Sa, 27.02. 11:00 1.3° C Sprühregen
Sa, 27.02. 10:30 1.1° C Sprühregen
Sa, 27.02. 10:20 1.1° C Sprühregen
Sa, 27.02. 10:10 1.0° C Sprühregen
Sa, 27.02. 10:00 0.9° C Sprühregen
Sa, 27.02. 9:50 0.9° C Sprühregen
Sa, 27.02. 9:30 0.6° C Sprühregen
Sa, 27.02. 9:00 0.4° C bedeckt
Ortszeit Relative Feuchte Sichtweite
Sa, 27.02. 7:00 100% 4.5 km
Sa, 27.02. 1:00 97% 12 km
Fr, 26.02. 19:00 100% 9 km
Fr, 26.02. 13:00 100% 1.9 km
Fr, 26.02. 7:00 76% 19 km
Fr, 26.02. 1:00 58% 20 km
Do, 25.02. 19:00 52% 23 km
Do, 25.02. 13:00 40% 27 km
Ortszeit Relative Feuchte Sichtweite
Sa, 27.02. 11:00 98% 4.0 km
Sa, 27.02. 10:30 99% 2.9 km
Sa, 27.02. 10:20 99% -
Sa, 27.02. 10:10 98% -
Sa, 27.02. 10:00 99% 3.3 km
Sa, 27.02. 9:50 99% -
Sa, 27.02. 9:30 99% 3.4 km
Sa, 27.02. 9:00 99% 4.0 km
Ortszeit Niederschlagsmenge Niederschlagsart
Sa, 27.02. 7:00 0.0 l/m2 in 12 Std. -
Sa, 27.02. 1:00 0.0 l/m2 in 6 Std. -
Fr, 26.02. 19:00 7 l/m2 in 12 Std. Schnee, Regen
Fr, 26.02. 13:00 0.5 l/m2 in 6 Std. Regen
Fr, 26.02. 7:00 0.0 l/m2 in 12 Std. -
Fr, 26.02. 1:00 0.0 l/m2 in 6 Std. -
Do, 25.02. 19:00 0.0 l/m2 in 12 Std. -
Do, 25.02. 13:00 0.0 l/m2 in 6 Std. -
Ortszeit Niederschlagsmenge Niederschlagsart
Sa, 27.02. 11:00 0.1 l/m2 in 1 Std. Sprühregen
Sa, 27.02. 10:30 0.1 l/m2 in 1 Std. -
Sa, 27.02. 10:20 keine Meldung -
Sa, 27.02. 10:10 keine Meldung -
Sa, 27.02. 10:00 0.1 l/m2 in 1 Std. Sprühregen
Sa, 27.02. 9:50 keine Meldung -
Sa, 27.02. 9:30 0.1 l/m2 in 1 Std. -
Sa, 27.02. 9:00 0.0 l/m2 in 1 Std. -
Ortszeit Stärke Spitze Richtung
km/h Bft. km/h Grad Sektor
Sa, 27.02. 7:00 13 3 26 310° NW
Sa, 27.02. 1:00 11 2 22 270° W
Fr, 26.02. 19:00 11 2 36 210° SW
Fr, 26.02. 13:00 15 3 26 330° NW
Fr, 26.02. 7:00 14 3 22 260° W
Fr, 26.02. 1:00 13 3 20 210° SW
Do, 25.02. 19:00 15 3 41 220° SW
Do, 25.02. 13:00 24 4 33 240° SW
Ortszeit Stärke Spitze Richtung
km/h Bft. km/h Grad Sektor
Sa, 27.02. 11:00 9 2 17 330° NW
Sa, 27.02. 10:30 11 2 18 330° NW
Sa, 27.02. 10:20 11 2 - 330° NW
Sa, 27.02. 10:10 11 2 - 310° NW
Sa, 27.02. 10:00 9 2 19 300° NW
Sa, 27.02. 9:50 9 2 - 300° NW
Sa, 27.02. 9:30 7 2 18 310° NW
Sa, 27.02. 9:00 13 3 22 300° NW
Ortszeit Untergrenze Bedeckung Gattung
total tief tief mittel hoch
Sa, 27.02. 7:00 60 m 8/8 8/8 - - -
Sa, 27.02. 1:00 570 m 8/8 8/8 - - -
Fr, 26.02. 19:00 150 m 8/8 8/8 - - -
Fr, 26.02. 13:00 30 m 7/8 8/8 - - -
Fr, 26.02. 7:00 5700 m 7/8 7/8 - - -
Fr, 26.02. 1:00 - 0/8 0/8 - - -
Do, 25.02. 19:00 - 0/8 0/8 - - -
Do, 25.02. 13:00 - 0/8 0/8 - - -
Ortszeit Bedeckungsgrad in Achtel und Wolkenuntergrenze
Sa, 27.02. 11:00 6(120m) 8(240m)
Sa, 27.02. 10:30 8(150m) 8(300m)
Sa, 27.02. 10:20 8(150m)
Sa, 27.02. 10:10 7(150m)
Sa, 27.02. 10:00 8(120m) 8(210m)
Sa, 27.02. 9:50 8(120m)
Sa, 27.02. 9:30 8(90m)
Sa, 27.02. 9:00 8(90m)
Ortszeit Luftdruck NN (hPa) Tendenz (hPa in 3 Std.)
Sa, 27.02. 7:00 1037 + 1,3
Sa, 27.02. 1:00 1035 + 1,1
Fr, 26.02. 19:00 1033 + 0,9
Fr, 26.02. 13:00 1031 + 0,9
Fr, 26.02. 7:00 1028 + 0,5
Fr, 26.02. 1:00 1028 - 0,3
Do, 25.02. 19:00 1028 + 0,7
Do, 25.02. 13:00 1027 - 0,4
Ortszeit Luftdruck NN (hPa) Tendenz (hPa in 3 Std.)
Sa, 27.02. 11:00 1039 + 1,5
Sa, 27.02. 10:30 1039 + 1,7
Sa, 27.02. 10:20 1039 keine Meldung
Sa, 27.02. 10:10 1039 keine Meldung
Sa, 27.02. 10:00 1039 + 1,9
Sa, 27.02. 9:50 1039 keine Meldung
Sa, 27.02. 9:30 1039 + 2,0
Sa, 27.02. 9:00 1039 + 2,0
Ortszeit Schneehöhe (cm)
Sa, 27.02. 7:00 0
Sa, 27.02. 1:00 0
Fr, 26.02. 19:00 0
Fr, 26.02. 13:00 0
Fr, 26.02. 7:00 0
Fr, 26.02. 1:00 0
Do, 25.02. 19:00 0
Do, 25.02. 13:00 0
Ortszeit Schneehöhe (cm)
Sa, 27.02. 11:00 0
Sa, 27.02. 10:30 0
Sa, 27.02. 10:20 0
Sa, 27.02. 10:10 0
Sa, 27.02. 10:00 0
Sa, 27.02. 9:50 0
Sa, 27.02. 9:30 0
Sa, 27.02. 9:00 0
Link zu dieser Seite / Seite empfehlen

Das Wetter in ...